Terminal Aerodrome Forecast
Issued by NWS

Home | Current Version | Previous Version | Text Only | Print | Product List | Glossary On
Versions: 1 2 3 4 5 6 7 8 9 10 11 12 13 14 15 16
000
FTUS43 KAPX 281120
TAFAPN
TAF
KAPN 281120Z 2812/2912 00000KT P6SM OVC040
     FM281500 32006KT P6SM BKN040
     FM281900 01009KT P6SM SCT040
     FM290100 00000KT P6SM SCT250
     FM290900 00000KT P6SM SCT035=

USA.gov is the U.S. government's official web portal to all federal, state and local government web resources and services.